weather.gov     
National Weather Service

Terminal Aerodrome Forecast
NWS Homepage
This page is being discontinued on March 12, 2014.
The same data is available at this site. Please update your bookmarks.
Thank you, and we apologize for the inconvenience.
Please send an email to SR-SRH.Webmaster@noaa.gov with any concerns.


Current Version
Previous Version:    01  02  03  04  05  06  07  08  09  10  11  12  13  14  15  16  17  18  19  20  21  22  23  24  25  26  27  28  29  30  
   31  32  33  34  35  
[Printable]
357
FTUS41 KPHI 310900 AAA
TAFPHL
TAF AMD
KPHL 310905Z 3109/0112 35003KT P6SM FEW060
     FM311100 02004KT P6SM FEW060
     FM311600 04006KT P6SM SCT050
     FM312000 05008KT P6SM BKN035
     FM010400 02009KT P6SM OVC025
     FM011000 02010KT P6SM -SHRA OVC020=


U.S. Dept. of Commerce
NOAA National Weather Service
1325 East West Highway
Silver Spring, MD 20910
E-mail: w-nws.webmaster@noaa.gov
Page last modified: May 16, 2007
NATIONAL WEATHER SERVICE: for Safety, for Work, for Fun - FOR LIFE